createdAt,value
2018-05-12T00:00:04.058Z,7.25
2018-05-12T00:01:04.520Z,7.25
2018-05-12T00:02:03.942Z,7.25
2018-05-12T00:03:03.579Z,7.25
2018-05-12T00:04:04.029Z,7.312
2018-05-12T00:05:03.781Z,7.312
2018-05-12T00:06:04.728Z,7.375
2018-05-12T00:07:03.947Z,7.375
2018-05-12T00:08:03.398Z,7.5
2018-05-12T00:09:04.134Z,7.562
2018-05-12T00:10:03.714Z,7.625
2018-05-12T00:11:03.916Z,7.562
2018-05-12T00:12:03.401Z,7.5
2018-05-12T00:13:03.935Z,7.375
2018-05-12T00:14:03.335Z,7.312
2018-05-12T00:15:04.031Z,7.25
2018-05-12T00:16:04.289Z,7.312
2018-05-12T00:17:04.356Z,7.25
2018-05-12T00:18:03.799Z,7.312
2018-05-12T00:19:05.370Z,7.312
2018-05-12T00:20:04.087Z,7.25
2018-05-12T00:21:03.439Z,7.187
2018-05-12T00:22:03.856Z,7.125
2018-05-12T00:23:04.144Z,7.125
2018-05-12T00:24:03.393Z,7.125
2018-05-12T00:25:03.379Z,7.062
2018-05-12T00:26:03.853Z,7.125
2018-05-12T00:27:03.964Z,7.062
2018-05-12T00:28:03.436Z,7.125
2018-05-12T00:29:03.815Z,7.062
2018-05-12T00:30:04.664Z,7.062
2018-05-12T00:31:03.411Z,7.062
2018-05-12T00:32:03.937Z,7
2018-05-12T00:33:04.415Z,7
2018-05-12T00:34:03.872Z,7
2018-05-12T00:35:04.169Z,7
2018-05-12T00:36:03.620Z,7
2018-05-12T00:37:04.172Z,7
2018-05-12T00:38:03.584Z,7
2018-05-12T00:39:04.211Z,7
2018-05-12T00:40:03.791Z,7
2018-05-12T00:41:04.993Z,6.937
2018-05-12T00:42:04.155Z,6.937
2018-05-12T00:43:03.959Z,6.937
2018-05-12T00:44:03.278Z,6.937
2018-05-12T00:45:03.739Z,7
2018-05-12T00:46:04.199Z,6.937
2018-05-12T00:47:03.654Z,6.937
2018-05-12T00:48:04.148Z,6.875
2018-05-12T00:49:03.790Z,6.937
2018-05-12T00:50:04.049Z,6.875
2018-05-12T00:51:03.531Z,6.937
2018-05-12T00:52:04.075Z,6.937
2018-05-12T00:53:03.779Z,6.937
2018-05-12T00:54:04.231Z,6.875
2018-05-12T00:55:03.575Z,6.875
2018-05-12T00:56:03.971Z,6.812
2018-05-12T00:57:03.345Z,6.812
2018-05-12T00:58:03.689Z,6.812
2018-05-12T00:59:04.091Z,6.812
2018-05-12T01:00:03.661Z,6.75
2018-05-12T01:01:03.948Z,6.75
2018-05-12T01:02:03.388Z,6.75
2018-05-12T01:03:03.562Z,6.75
2018-05-12T01:04:04.000Z,6.812
2018-05-12T01:05:03.747Z,6.812
2018-05-12T01:06:03.981Z,6.812
2018-05-12T01:07:03.724Z,6.875
2018-05-12T01:08:04.219Z,6.812
2018-05-12T01:09:04.116Z,6.875
2018-05-12T01:10:03.687Z,6.812
2018-05-12T01:11:03.972Z,6.812
2018-05-12T01:12:03.408Z,6.812
2018-05-12T01:13:03.762Z,6.812
2018-05-12T01:14:03.367Z,6.875
2018-05-12T01:15:03.854Z,6.875
2018-05-12T01:16:04.952Z,6.875
2018-05-12T01:17:04.163Z,6.875
2018-05-12T01:18:03.801Z,6.812
2018-05-12T01:19:04.294Z,6.812
2018-05-12T01:20:03.836Z,6.875
2018-05-12T01:21:04.143Z,6.937
2018-05-12T01:22:03.701Z,7.062
2018-05-12T01:23:03.831Z,7.187
2018-05-12T01:24:03.396Z,7.25
2018-05-12T01:25:03.489Z,7.187
2018-05-12T01:26:04.385Z,7.125
2018-05-12T01:27:03.937Z,7.062
2018-05-12T01:28:04.213Z,7.187
2018-05-12T01:29:03.819Z,7.187
2018-05-12T01:30:03.627Z,7.312
2018-05-12T01:31:03.501Z,7.5
2018-05-12T01:32:04.045Z,7.375
2018-05-12T01:33:03.690Z,7.375
2018-05-12T01:34:04.205Z,7.5
2018-05-12T01:35:03.706Z,7.562
2018-05-12T01:36:04.421Z,7.562
2018-05-12T01:37:03.997Z,7.562
2018-05-12T01:38:03.693Z,7.625
2018-05-12T01:39:03.601Z,7.687
2018-05-12T01:40:03.647Z,7.812
2018-05-12T01:41:03.889Z,8
2018-05-12T01:42:03.556Z,8.062
2018-05-12T01:43:03.989Z,8.062
2018-05-12T01:44:03.516Z,8.062
2018-05-12T01:45:04.061Z,8.187
2018-05-12T01:46:03.584Z,8.375
2018-05-12T01:47:04.093Z,8.437
2018-05-12T01:48:03.623Z,8.625
2018-05-12T01:49:03.990Z,8.687
2018-05-12T01:50:03.804Z,8.75
2018-05-12T01:51:04.620Z,8.75
2018-05-12T01:52:03.888Z,8.687
2018-05-12T01:53:03.460Z,8.625
2018-05-12T01:54:04.175Z,8.562
2018-05-12T01:55:03.568Z,8.5
2018-05-12T01:56:04.013Z,8.625
2018-05-12T01:57:03.719Z,8.625
2018-05-12T01:59:03.721Z,8.5
2018-05-12T02:00:04.393Z,8.562
2018-05-12T02:01:04.663Z,8.562
2018-05-12T02:02:03.898Z,8.5
2018-05-12T02:03:03.369Z,8.562
2018-05-12T02:04:03.820Z,8.5
2018-05-12T02:05:03.426Z,8.5
2018-05-12T02:06:04.016Z,8.5
2018-05-12T02:07:03.445Z,8.5
2018-05-12T02:08:03.883Z,8.5
2018-05-12T02:09:04.179Z,8.5
2018-05-12T02:10:03.690Z,8.437
2018-05-12T02:11:04.335Z,8.437
2018-05-12T02:12:03.935Z,8.437
2018-05-12T02:13:03.298Z,8.437
2018-05-12T02:14:03.719Z,8.437
2018-05-12T02:15:04.147Z,8.437
2018-05-12T02:16:03.529Z,8.437
2018-05-12T02:17:04.481Z,8.5
2018-05-12T02:18:03.862Z,8.5
2018-05-12T02:19:03.270Z,8.5
2018-05-12T02:20:03.852Z,8.5
2018-05-12T02:21:03.574Z,8.562
2018-05-12T02:22:03.944Z,8.562
2018-05-12T02:23:03.453Z,8.562
2018-05-12T02:24:04.022Z,8.562
2018-05-12T02:25:03.482Z,8.562
2018-05-12T02:26:04.069Z,8.625
2018-05-12T02:27:03.533Z,8.625
2018-05-12T02:28:03.883Z,8.625
2018-05-12T02:29:03.372Z,8.562
2018-05-12T02:30:03.456Z,8.562
2018-05-12T02:31:03.961Z,8.562
2018-05-12T02:32:03.591Z,8.562
2018-05-12T02:33:04.010Z,8.562
2018-05-12T02:34:03.903Z,8.562
2018-05-12T02:35:03.620Z,8.562
2018-05-12T02:36:03.630Z,8.562
2018-05-12T02:37:04.274Z,8.562
2018-05-12T02:38:03.734Z,8.625
2018-05-12T02:39:04.502Z,8.562
2018-05-12T02:40:04.231Z,8.625
2018-05-12T02:41:03.605Z,8.625
2018-05-12T02:42:04.194Z,8.625
2018-05-12T02:43:03.699Z,8.687
2018-05-12T02:44:04.153Z,8.75
2018-05-12T02:45:03.606Z,8.812
2018-05-12T02:46:04.874Z,8.812
2018-05-12T02:47:04.095Z,8.812
2018-05-12T02:48:03.293Z,8.937
2018-05-12T02:49:03.869Z,9
2018-05-12T02:50:04.280Z,9
2018-05-12T02:51:03.727Z,9.125
2018-05-12T02:52:03.385Z,9.187
2018-05-12T02:53:03.601Z,9.25
2018-05-12T02:54:04.109Z,9.25
2018-05-12T02:55:04.020Z,9.25
2018-05-12T02:56:03.544Z,9.25
2018-05-12T02:57:03.977Z,9.25
2018-05-12T02:58:03.491Z,9.25
2018-05-12T02:59:04.287Z,9.312
2018-05-12T03:00:04.035Z,9.375
2018-05-12T03:01:03.590Z,9.375
2018-05-12T03:02:04.221Z,9.437
2018-05-12T03:03:03.809Z,9.375
2018-05-12T03:04:03.494Z,9.375
2018-05-12T03:05:04.412Z,9.437
2018-05-12T03:06:03.593Z,9.437
2018-05-12T03:07:04.303Z,9.437
2018-05-12T03:08:03.669Z,9.437
2018-05-12T03:09:03.606Z,9.375
2018-05-12T03:10:03.643Z,9.375
2018-05-12T03:11:04.095Z,9.437
2018-05-12T03:12:03.868Z,9.437
2018-05-12T03:13:04.251Z,9.437
2018-05-12T03:14:03.713Z,9.375
2018-05-12T03:15:04.347Z,9.312
2018-05-12T03:16:04.190Z,9.312
2018-05-12T03:17:03.592Z,9.312
2018-05-12T03:18:04.164Z,9.312
2018-05-12T03:19:03.606Z,9.312
2018-05-12T03:20:03.961Z,9.312
2018-05-12T03:21:03.610Z,9.375
2018-05-12T03:22:03.577Z,9.312
2018-05-12T03:23:03.476Z,9.375
2018-05-12T03:24:04.352Z,9.312
2018-05-12T03:25:03.766Z,9.375
2018-05-12T03:26:04.224Z,9.375
2018-05-12T03:27:03.706Z,9.375
2018-05-12T03:28:04.384Z,9.437
2018-05-12T03:29:03.790Z,9.437
2018-05-12T03:30:04.666Z,9.375
2018-05-12T03:31:05.049Z,9.375
2018-05-12T03:32:04.137Z,9.375
2018-05-12T03:33:03.682Z,9.312
2018-05-12T03:34:04.200Z,9.375
2018-05-12T03:35:03.590Z,9.375
2018-05-12T03:36:03.838Z,9.375
2018-05-12T03:37:03.600Z,9.312
2018-05-12T03:38:04.310Z,9.375
2018-05-12T03:39:04.225Z,9.375
2018-05-12T03:40:03.902Z,9.375
2018-05-12T03:41:03.366Z,9.437
2018-05-12T03:42:04.135Z,9.437
2018-05-12T03:43:03.792Z,9.437
2018-05-12T03:44:04.149Z,9.437
2018-05-12T03:45:03.735Z,9.437
2018-05-12T03:46:03.667Z,9.437
2018-05-12T03:47:03.985Z,9.312
2018-05-12T03:48:03.569Z,9.312
2018-05-12T03:49:04.082Z,9.312
2018-05-12T03:50:03.726Z,9.25
2018-05-12T03:51:04.011Z,9.312
2018-05-12T03:52:03.862Z,9.312
2018-05-12T03:53:03.592Z,9.375
2018-05-12T03:54:04.209Z,9.375
2018-05-12T03:55:03.574Z,9.437
2018-05-12T03:56:04.212Z,9.437
2018-05-12T03:57:03.623Z,9.5
2018-05-12T03:58:03.937Z,9.562
2018-05-12T03:59:04.202Z,9.625
2018-05-12T04:00:04.156Z,9.687
2018-05-12T04:01:03.617Z,9.75
2018-05-12T04:02:04.289Z,9.812
2018-05-12T04:03:03.450Z,9.875
2018-05-12T04:04:03.456Z,10
2018-05-12T04:05:03.986Z,10.125
2018-05-12T04:06:03.899Z,10.187
2018-05-12T04:07:04.499Z,10.437
2018-05-12T04:08:04.083Z,10.562
2018-05-12T04:09:04.205Z,10.75
2018-05-12T04:10:03.781Z,10.937
2018-05-12T04:11:03.567Z,11.125
2018-05-12T04:12:03.634Z,11.25
2018-05-12T04:13:04.429Z,11.312
2018-05-12T04:14:03.482Z,11.437
2018-05-12T04:15:04.109Z,11.625
2018-05-12T04:16:03.997Z,11.687
2018-05-12T04:17:04.327Z,11.875
2018-05-12T04:18:04.082Z,11.937
2018-05-12T04:19:03.552Z,12.062
2018-05-12T04:20:03.921Z,12.187
2018-05-12T04:21:03.565Z,12.25
2018-05-12T04:22:03.715Z,12.312
2018-05-12T04:23:05.134Z,12.5
2018-05-12T04:24:03.409Z,12.625
2018-05-12T04:25:06.598Z,12.875
2018-05-12T04:26:04.099Z,13.062
2018-05-12T04:27:03.511Z,13.187
2018-05-12T04:28:03.994Z,13.375
2018-05-12T04:29:03.781Z,13.625
2018-05-12T04:30:03.458Z,13.75
2018-05-12T04:31:06.600Z,14.062
2018-05-12T04:32:03.427Z,14.25
2018-05-12T04:33:03.978Z,14.437
2018-05-12T04:34:03.572Z,14.625
2018-05-12T04:35:03.876Z,14.812
2018-05-12T04:36:03.746Z,15
2018-05-12T04:37:04.281Z,15.125
2018-05-12T04:38:03.567Z,15.187
2018-05-12T04:39:04.256Z,15.375
2018-05-12T04:40:03.685Z,15.5
2018-05-12T04:41:03.851Z,15.75
2018-05-12T04:42:04.288Z,15.937
2018-05-12T04:43:03.825Z,15.937
2018-05-12T04:44:03.353Z,16.125
2018-05-12T04:45:03.816Z,16.25
2018-05-12T04:46:04.022Z,16.375
2018-05-12T04:47:03.811Z,16.5
2018-05-12T04:48:03.408Z,16.75
2018-05-12T04:49:04.316Z,16.875
2018-05-12T04:50:03.264Z,17.125
2018-05-12T04:51:04.577Z,17.312
2018-05-12T04:52:03.797Z,17.437
2018-05-12T04:53:04.236Z,17.562
2018-05-12T04:54:03.692Z,17.625
2018-05-12T04:55:04.024Z,17.75
2018-05-12T04:56:03.503Z,17.75
2018-05-12T04:57:03.944Z,18
2018-05-12T04:58:03.323Z,18.062
2018-05-12T04:59:03.527Z,18.187
2018-05-12T05:00:04.105Z,18.437
2018-05-12T05:01:03.681Z,18.625
2018-05-12T05:02:03.979Z,18.812
2018-05-12T05:03:03.594Z,18.937
2018-05-12T05:04:03.505Z,19
2018-05-12T05:05:03.647Z,19.062
2018-05-12T05:06:06.210Z,19.187
2018-05-12T05:07:03.560Z,19.25
2018-05-12T05:08:04.096Z,19.375
2018-05-12T05:09:03.425Z,19.5
2018-05-12T05:10:03.278Z,19.562
2018-05-12T05:11:04.156Z,19.812
2018-05-12T05:12:03.484Z,19.875
2018-05-12T05:13:03.546Z,20
2018-05-12T05:14:04.121Z,20.187
2018-05-12T05:15:03.917Z,20.437
2018-05-12T05:16:03.532Z,20.562
2018-05-12T05:17:03.550Z,20.687
2018-05-12T05:18:03.837Z,20.812
2018-05-12T05:19:03.427Z,20.875
2018-05-12T05:20:04.125Z,20.875
2018-05-12T05:21:03.717Z,20.687
2018-05-12T05:22:04.088Z,20.625
2018-05-12T05:23:03.509Z,20.75
2018-05-12T05:24:04.106Z,21
2018-05-12T05:25:03.723Z,21.375
2018-05-12T05:26:04.234Z,21.687
2018-05-12T05:27:03.558Z,22
2018-05-12T05:28:04.145Z,22.5
2018-05-12T05:29:03.648Z,22.75
2018-05-12T05:30:04.825Z,22.937
2018-05-12T05:31:04.091Z,23
2018-05-12T05:32:03.312Z,22.937
2018-05-12T05:33:03.657Z,22.812
2018-05-12T05:34:03.903Z,22.5
2018-05-12T05:35:03.381Z,22.312
2018-05-12T05:36:04.214Z,22.125
2018-05-12T05:37:03.730Z,22.062
2018-05-12T05:38:04.221Z,21.562
2018-05-12T05:39:04.328Z,21.312
2018-05-12T05:40:03.590Z,21.187
2018-05-12T05:41:05.048Z,21.062
2018-05-12T05:42:04.641Z,20.875
2018-05-12T05:43:05.043Z,20.937
2018-05-12T05:44:04.214Z,21
2018-05-12T05:45:03.845Z,20.937
2018-05-12T05:46:03.380Z,20.937
2018-05-12T05:47:03.828Z,21
2018-05-12T05:48:04.189Z,20.812
2018-05-12T05:49:03.659Z,20.625
2018-05-12T05:50:04.213Z,20.625
2018-05-12T05:51:03.978Z,20.75
2018-05-12T05:52:04.071Z,20.812
2018-05-12T05:53:03.536Z,20.75
2018-05-12T05:54:03.957Z,20.562
2018-05-12T05:55:03.664Z,20.625
2018-05-12T05:56:04.236Z,20.5
2018-05-12T05:57:03.847Z,20.375
2018-05-12T05:58:03.436Z,20.25
2018-05-12T05:59:04.002Z,20.125
2018-05-12T06:00:03.749Z,20.187
2018-05-12T06:01:04.132Z,20.25
2018-05-12T06:02:04.292Z,20.187
2018-05-12T06:03:03.899Z,20.375
2018-05-12T06:04:04.354Z,20.437
2018-05-12T06:05:03.865Z,20.375
2018-05-12T06:06:04.258Z,20.437
2018-05-12T06:07:03.470Z,20.187
2018-05-12T06:08:03.951Z,20.187
2018-05-12T06:09:03.693Z,20.187
2018-05-12T06:11:03.964Z,20.437
2018-05-12T06:12:03.495Z,20.375
2018-05-12T06:13:04.024Z,20.312
2018-05-12T06:14:03.385Z,20.25
2018-05-12T06:15:04.232Z,20.375
2018-05-12T06:16:03.252Z,20.5
2018-05-12T06:17:03.876Z,20.562
2018-05-12T06:18:03.328Z,20.687
2018-05-12T06:19:03.442Z,20.875
2018-05-12T06:20:04.338Z,20.875
2018-05-12T06:21:08.964Z,20.937
2018-05-12T06:22:03.575Z,21.062
2018-05-12T06:23:04.016Z,21.187
2018-05-12T06:24:03.693Z,21.187
2018-05-12T06:25:04.263Z,21.187
2018-05-12T06:26:03.817Z,21.25
2018-05-12T06:27:03.282Z,21.25
2018-05-12T06:28:03.299Z,21.375
2018-05-12T06:29:03.778Z,21.312
2018-05-12T06:30:04.242Z,21.437
2018-05-12T06:31:03.371Z,21.562
2018-05-12T06:32:03.783Z,21.5
2018-05-12T06:33:03.519Z,21.562
2018-05-12T06:34:03.832Z,21.437
2018-05-12T06:35:03.384Z,21.5
2018-05-12T06:36:04.820Z,21.375
2018-05-12T06:37:04.208Z,21.5
2018-05-12T06:38:03.772Z,21.625
2018-05-12T06:39:03.558Z,21.812
2018-05-12T06:40:03.566Z,21.812
2018-05-12T06:41:04.116Z,21.875
2018-05-12T06:42:03.635Z,21.875
2018-05-12T06:43:04.275Z,22
2018-05-12T06:44:03.870Z,22
2018-05-12T06:45:04.235Z,21.937
2018-05-12T06:46:05.361Z,21.875
2018-05-12T06:47:03.592Z,21.937
2018-05-12T06:48:03.975Z,22
2018-05-12T06:49:03.504Z,21.937
2018-05-12T06:50:04.094Z,22.125
2018-05-12T06:51:03.544Z,22.187
2018-05-12T06:52:03.541Z,22.187
2018-05-12T06:53:04.081Z,22.187
2018-05-12T06:54:03.572Z,22.187
2018-05-12T06:55:04.080Z,22.187
2018-05-12T06:56:05.140Z,22.187
2018-05-12T06:57:04.202Z,22
2018-05-12T06:58:03.412Z,22.062
2018-05-12T06:59:03.819Z,22.062
2018-05-12T07:00:03.430Z,22
2018-05-12T07:01:04.074Z,22.125
2018-05-12T07:02:03.831Z,22.312
2018-05-12T07:03:03.395Z,22.625
2018-05-12T07:04:03.431Z,22.812
2018-05-12T07:05:03.959Z,23
2018-05-12T07:06:04.657Z,23.25
2018-05-12T07:07:04.191Z,23.437
2018-05-12T07:08:04.240Z,23.25
2018-05-12T07:09:04.301Z,23.375
2018-05-12T07:10:03.687Z,23.625
2018-05-12T07:11:04.254Z,23.812
2018-05-12T07:12:03.398Z,24.25
2018-05-12T07:13:03.752Z,24.5
2018-05-12T07:14:04.318Z,24.562
2018-05-12T07:15:03.927Z,24.875
2018-05-12T07:16:03.845Z,25.062
2018-05-12T07:17:04.316Z,25.187
2018-05-12T07:18:03.967Z,25.312
2018-05-12T07:19:03.446Z,25.375
2018-05-12T07:20:03.850Z,25.562
2018-05-12T07:21:03.562Z,25.5
2018-05-12T07:22:04.256Z,25.687
2018-05-12T07:23:03.785Z,25.875
2018-05-12T07:24:03.637Z,25.875
2018-05-12T07:25:04.255Z,25.937
2018-05-12T07:26:07.168Z,25.875
2018-05-12T07:27:04.558Z,25.875
2018-05-12T07:28:03.943Z,25.875
2018-05-12T07:29:03.969Z,25.875
2018-05-12T07:30:04.725Z,25.812
2018-05-12T07:31:03.831Z,25.687
2018-05-12T07:32:03.990Z,25.75
2018-05-12T07:33:03.586Z,25.875
2018-05-12T07:34:04.169Z,25.937
2018-05-12T07:35:03.745Z,26.187
2018-05-12T07:36:05.040Z,26.562
2018-05-12T07:37:04.257Z,27.437
2018-05-12T07:38:03.590Z,28.562
2018-05-12T07:39:04.331Z,29.187
2018-05-12T07:40:03.879Z,29.437
2018-05-12T07:41:03.531Z,29.687
2018-05-12T07:42:04.006Z,30.125
2018-05-12T07:43:03.471Z,30.062
2018-05-12T07:44:03.927Z,29.812
2018-05-12T07:45:03.864Z,29.5
2018-05-12T07:46:05.268Z,29.187
2018-05-12T07:47:03.564Z,29
2018-05-12T07:48:04.203Z,29
2018-05-12T07:49:03.682Z,28.687
2018-05-12T07:50:04.262Z,29.437
2018-05-12T07:51:03.717Z,29.75
2018-05-12T07:52:04.326Z,29.75
2018-05-12T07:53:03.872Z,30.25
2018-05-12T07:54:04.191Z,30.812
2018-05-12T07:55:03.619Z,30.5
2018-05-12T07:56:04.811Z,29.437
2018-05-12T07:57:04.207Z,29.187
2018-05-12T07:58:03.766Z,29.75
2018-05-12T07:59:04.163Z,30.25
2018-05-12T08:00:04.127Z,30.062
2018-05-12T08:01:04.088Z,29.562
2018-05-12T08:02:03.497Z,29.062
2018-05-12T08:03:03.867Z,28.437
2018-05-12T08:04:03.399Z,29.5
2018-05-12T08:05:04.219Z,30.562
2018-05-12T08:06:03.686Z,31.25
2018-05-12T08:07:03.839Z,31.062
2018-05-12T08:08:03.365Z,30.937
2018-05-12T08:09:04.211Z,31.625
2018-05-12T08:10:03.773Z,31.687
2018-05-12T08:11:04.201Z,31.875
2018-05-12T08:12:03.719Z,31.687
2018-05-12T08:13:04.315Z,30.625
2018-05-12T08:14:04.271Z,30.875
2018-05-12T08:15:03.761Z,31.687
2018-05-12T08:16:05.640Z,31.875
2018-05-12T08:17:04.092Z,32.375
2018-05-12T08:18:03.615Z,32.625
2018-05-12T08:19:04.118Z,32.687
2018-05-12T08:20:03.770Z,32.437
2018-05-12T08:21:04.274Z,32.375
2018-05-12T08:22:04.025Z,32.25
2018-05-12T08:23:03.468Z,32.25
2018-05-12T08:24:04.012Z,32.187
2018-05-12T08:25:03.602Z,32
2018-05-12T08:26:04.482Z,32
2018-05-12T08:27:04.116Z,31.875
2018-05-12T08:28:03.521Z,31.125
2018-05-12T08:29:04.085Z,30.437
2018-05-12T08:30:03.707Z,30.25
2018-05-12T08:31:03.930Z,29.812
2018-05-12T08:32:03.985Z,29.687
2018-05-12T08:33:03.471Z,29
2018-05-12T08:34:04.011Z,28.562
2018-05-12T08:35:03.462Z,28.062
2018-05-12T08:36:04.260Z,27.937
2018-05-12T08:37:03.564Z,29.437
2018-05-12T08:38:04.209Z,30.312
2018-05-12T08:39:04.049Z,31.25
2018-05-12T08:40:03.887Z,32.062
2018-05-12T08:41:05.382Z,32.437
2018-05-12T08:42:03.657Z,32.875
2018-05-12T08:43:04.036Z,33.062
2018-05-12T08:44:03.611Z,32.25
2018-05-12T08:45:04.087Z,31.25
2018-05-12T08:46:03.569Z,30.875
2018-05-12T08:47:04.080Z,30.375
2018-05-12T08:48:03.337Z,29.937
2018-05-12T08:49:03.817Z,30
2018-05-12T08:50:03.762Z,29.875
2018-05-12T08:51:04.224Z,29.625
2018-05-12T08:52:03.711Z,29.25
2018-05-12T08:53:04.321Z,28.75
2018-05-12T08:54:03.776Z,29.687
2018-05-12T08:55:04.178Z,29.875
2018-05-12T08:56:04.006Z,29.312
2018-05-12T08:57:03.609Z,28.875
2018-05-12T08:58:04.146Z,28.875
2018-05-12T08:59:03.459Z,29.312
2018-05-12T09:00:04.027Z,29.75
2018-05-12T09:01:04.140Z,30
2018-05-12T09:02:03.702Z,29.937
2018-05-12T09:03:04.117Z,30
2018-05-12T09:04:08.702Z,29.437
2018-05-12T09:05:03.671Z,29.625
2018-05-12T09:06:03.917Z,30.687
2018-05-12T09:07:03.574Z,30.25
2018-05-12T09:08:04.087Z,30.437
2018-05-12T09:09:03.914Z,29.062
2018-05-12T09:10:03.557Z,28.562
2018-05-12T09:11:05.270Z,28.812
2018-05-12T09:12:03.658Z,29.125
2018-05-12T09:13:04.114Z,29.5
2018-05-12T09:14:03.630Z,29.437
2018-05-12T09:15:04.178Z,29.812
2018-05-12T09:16:03.693Z,29.437
2018-05-12T09:17:04.433Z,29.25
2018-05-12T09:18:03.960Z,28.812
2018-05-12T09:19:04.236Z,28.625
2018-05-12T09:20:03.403Z,28.25
2018-05-12T09:21:04.717Z,27.875
2018-05-12T09:22:04.146Z,28.375
2018-05-12T09:23:04.002Z,28.562
2018-05-12T09:24:03.438Z,28.437
2018-05-12T09:25:03.584Z,28.75
2018-05-12T09:26:03.351Z,29.625
2018-05-12T09:27:03.938Z,30.25
2018-05-12T09:28:04.308Z,31.25
2018-05-12T09:29:03.461Z,31.812
2018-05-12T09:30:03.580Z,31.687
2018-05-12T09:31:04.152Z,32.437
2018-05-12T09:32:03.653Z,32.812
2018-05-12T09:33:04.107Z,32.625
2018-05-12T09:34:03.499Z,31.812
2018-05-12T09:35:04.005Z,31.312
2018-05-12T09:36:03.487Z,30.75
2018-05-12T09:37:03.577Z,30.125
2018-05-12T09:38:04.262Z,29.875
2018-05-12T09:39:04.367Z,30.125
2018-05-12T09:40:03.783Z,29.687
2018-05-12T09:41:04.313Z,29.562
2018-05-12T09:42:03.767Z,29.75
2018-05-12T09:43:05.229Z,30.5
2018-05-12T09:44:03.358Z,31.375
2018-05-12T09:45:04.705Z,31.5
2018-05-12T09:46:05.151Z,31.125
2018-05-12T09:47:03.609Z,30.875
2018-05-12T09:48:04.030Z,30.75
2018-05-12T09:49:03.522Z,30.562
2018-05-12T09:50:03.996Z,30.5
2018-05-12T09:51:03.573Z,30.312
2018-05-12T09:52:03.574Z,30.25
2018-05-12T09:53:03.983Z,30.5
2018-05-12T09:54:03.490Z,30.812
2018-05-12T09:55:03.835Z,31.75
2018-05-12T09:56:03.946Z,32.5
2018-05-12T09:57:03.497Z,33.625
2018-05-12T09:58:03.621Z,34.062
2018-05-12T09:59:04.285Z,33.437
2018-05-12T10:00:04.379Z,33
2018-05-12T10:01:05.528Z,32.687
2018-05-12T10:02:03.753Z,32.437
2018-05-12T10:03:03.284Z,32.625
2018-05-12T10:04:03.847Z,32.937
2018-05-12T10:05:03.478Z,33.375
2018-05-12T10:06:03.613Z,33.875
2018-05-12T10:07:03.394Z,34
2018-05-12T10:08:03.510Z,33.875
2018-05-12T10:09:04.831Z,34.187
2018-05-12T10:10:04.334Z,34.5
2018-05-12T10:11:03.699Z,34.062
2018-05-12T10:12:04.121Z,34.25
2018-05-12T10:13:03.549Z,33.812
2018-05-12T10:14:04.308Z,33.687
2018-05-12T10:15:04.227Z,33.375
2018-05-12T10:16:04.088Z,32.437
2018-05-12T10:17:03.628Z,31.875
2018-05-12T10:18:04.065Z,31.062
2018-05-12T10:19:03.582Z,31
2018-05-12T10:20:04.334Z,31.687
2018-05-12T10:21:03.865Z,32.25
2018-05-12T10:22:03.488Z,32.75
2018-05-12T10:23:03.747Z,33.625
2018-05-12T10:24:03.759Z,33.875
2018-05-12T10:25:03.568Z,33.625
2018-05-12T10:26:04.207Z,33.25
2018-05-12T10:27:03.984Z,32.75
2018-05-12T10:28:03.588Z,32.375
2018-05-12T10:29:04.215Z,32.375
2018-05-12T10:30:08.768Z,32.812
2018-05-12T10:31:04.230Z,33.75
2018-05-12T10:32:03.451Z,34.125
2018-05-12T10:33:03.787Z,34.375
2018-05-12T10:34:03.432Z,33.937
2018-05-12T10:35:04.032Z,33.812
2018-05-12T10:36:03.515Z,33.375
2018-05-12T10:37:04.099Z,33.687
2018-05-12T10:38:03.611Z,33.875
2018-05-12T10:39:04.339Z,33.312
2018-05-12T10:40:03.809Z,32.875
2018-05-12T10:41:04.234Z,32.5
2018-05-12T10:42:03.763Z,32
2018-05-12T10:43:03.757Z,31.312
2018-05-12T10:44:04.194Z,31.312
2018-05-12T10:45:03.763Z,31.437
2018-05-12T10:46:04.208Z,31.625
2018-05-12T10:47:03.655Z,31.875
2018-05-12T10:48:04.106Z,31.937
2018-05-12T10:49:03.524Z,31.812
2018-05-12T10:50:04.006Z,31.812
2018-05-12T10:51:03.892Z,31.437
2018-05-12T10:52:04.239Z,31.187
2018-05-12T10:53:03.679Z,31.375
2018-05-12T10:54:04.258Z,31.437
2018-05-12T10:55:03.903Z,31.187
2018-05-12T10:56:04.758Z,31.312
2018-05-12T10:57:04.011Z,31.437
2018-05-12T10:58:03.516Z,31.5
2018-05-12T10:59:03.926Z,31.062
2018-05-12T11:00:03.678Z,30.687
2018-05-12T11:01:04.273Z,30.312
2018-05-12T11:02:04.402Z,30.25
2018-05-12T11:03:03.657Z,30.125
2018-05-12T11:04:04.167Z,29.75
2018-05-12T11:05:03.777Z,30.062
2018-05-12T11:06:04.632Z,30.312
2018-05-12T11:07:04.209Z,30.312
2018-05-12T11:08:03.719Z,30.125
2018-05-12T11:09:03.424Z,29.187
2018-05-12T11:10:03.501Z,28.937
2018-05-12T11:11:03.984Z,29
2018-05-12T11:12:04.106Z,29.187
2018-05-12T11:13:03.638Z,29.062
2018-05-12T11:14:04.189Z,28.75
2018-05-12T11:15:03.857Z,28.687
2018-05-12T11:16:03.505Z,29.187
2018-05-12T11:17:04.143Z,29.875
2018-05-12T11:18:03.596Z,30.25
2018-05-12T11:19:04.288Z,30.25
2018-05-12T11:20:04.437Z,30.062
2018-05-12T11:21:03.704Z,29.437
2018-05-12T11:22:04.319Z,29.625
2018-05-12T11:23:03.744Z,29.562
2018-05-12T11:24:04.138Z,29.5
2018-05-12T11:25:04.682Z,29
2018-05-12T11:26:04.287Z,29.062
2018-05-12T11:27:03.780Z,29.125
2018-05-12T11:28:04.267Z,28.937
2018-05-12T11:29:03.704Z,29.312
2018-05-12T11:30:04.200Z,29.437
2018-05-12T11:31:03.576Z,29
2018-05-12T11:32:03.486Z,28.937
2018-05-12T11:33:03.797Z,29.062
2018-05-12T11:34:04.101Z,29.625
2018-05-12T11:35:03.700Z,29.812
2018-05-12T11:36:04.064Z,29.812
2018-05-12T11:37:03.612Z,29.875
2018-05-12T11:38:04.073Z,30.125
2018-05-12T11:39:04.141Z,29.75
2018-05-12T11:40:04.349Z,29.875
2018-05-12T11:41:03.718Z,30.25
2018-05-12T11:42:04.193Z,30.562
2018-05-12T11:43:03.412Z,30.687
2018-05-12T11:44:03.944Z,30.437
2018-05-12T11:45:03.616Z,30.187
2018-05-12T11:46:03.813Z,29.562
2018-05-12T11:47:03.533Z,29.187
2018-05-12T11:48:03.796Z,28.687
2018-05-12T11:49:03.478Z,28.125
2018-05-12T11:50:03.885Z,28.062
2018-05-12T11:51:04.031Z,28.062
2018-05-12T11:52:03.849Z,28.312
2018-05-12T11:53:03.360Z,28.375
2018-05-12T11:54:04.443Z,28.687
2018-05-12T11:55:03.684Z,29.125
2018-05-12T11:56:04.080Z,29.5
2018-05-12T11:57:03.863Z,28.812
2018-05-12T11:58:04.285Z,28.625
2018-05-12T11:59:03.864Z,28.25
2018-05-12T12:00:03.890Z,28.125
2018-05-12T12:01:03.468Z,28.187
2018-05-12T12:02:04.046Z,28.125
2018-05-12T12:03:03.547Z,28.375
2018-05-12T12:04:03.955Z,28.437
2018-05-12T12:05:03.685Z,28
2018-05-12T12:06:04.949Z,28.125
2018-05-12T12:07:04.226Z,27.937
2018-05-12T12:08:03.331Z,28.062
2018-05-12T12:09:04.032Z,27.875
2018-05-12T12:10:03.544Z,27.687
2018-05-12T12:11:04.233Z,27.875
2018-05-12T12:12:03.736Z,28.25
2018-05-12T12:13:04.266Z,28.437
2018-05-12T12:14:03.645Z,28.437
2018-05-12T12:15:04.275Z,28.062
2018-05-12T12:16:04.402Z,27.625
2018-05-12T12:17:03.795Z,27.187
2018-05-12T12:18:04.173Z,27
2018-05-12T12:19:03.511Z,26.687
2018-05-12T12:20:03.839Z,26.625
2018-05-12T12:21:04.264Z,27.062
2018-05-12T12:22:03.846Z,27.187
2018-05-12T12:23:03.422Z,27.562
2018-05-12T12:24:04.008Z,27.812
2018-05-12T12:25:03.753Z,27.437
2018-05-12T12:26:03.927Z,27.125
2018-05-12T12:27:03.525Z,27.125
2018-05-12T12:28:04.038Z,27.062
2018-05-12T12:29:03.659Z,27.187
2018-05-12T12:30:05.096Z,27
2018-05-12T12:31:03.413Z,26.937
2018-05-12T12:32:03.440Z,26.75
2018-05-12T12:33:03.936Z,26.625
2018-05-12T12:34:04.181Z,26.75
2018-05-12T12:35:03.743Z,26.625
2018-05-12T12:36:04.329Z,26.687
2018-05-12T12:37:03.965Z,26.687
2018-05-12T12:38:03.685Z,26.75
2018-05-12T12:39:04.253Z,26.5
2018-05-12T12:40:04.284Z,26.437
2018-05-12T12:41:04.978Z,26.562
2018-05-12T12:42:03.483Z,26.687
2018-05-12T12:43:03.922Z,26.875
2018-05-12T12:44:03.435Z,27
2018-05-12T12:45:03.969Z,26.687
2018-05-12T12:46:03.414Z,26.875
2018-05-12T12:47:03.940Z,26.937
2018-05-12T12:48:03.289Z,27
2018-05-12T12:49:03.419Z,27.125